Time;durP1;ratioP1;P1;durP2;ratioP2;P2;SDS_P1;SDS_P2;PMS_P1;PMS_P2;Temp;Humidity;BMP_temperature;BMP_pressure;BME280_temperature;BME280_humidity;BME280_pressure;Samples;Min_cycle;Max_cycle;Signal;HPM_P1;HPM_P2
2023/03/22 00:01:18;;;;;;;8.82;6.53;;;22.60;37.50;;;;;;5092288;28;20451;-61
2023/03/22 00:03:46;;;;;;;8.55;6.40;;;22.60;37.50;;;;;;5092951;28;20048;-61
2023/03/22 00:06:13;;;;;;;9.50;6.72;;;22.60;37.50;;;;;;5092446;28;20952;-61
2023/03/22 00:08:41;;;;;;;9.07;6.18;;;22.60;37.50;;;;;;5092946;28;20480;-61
2023/03/22 00:11:10;;;;;;;8.50;6.10;;;22.60;37.50;;;;;;5091900;28;20504;-61
2023/03/22 00:13:37;;;;;;;9.50;6.60;;;22.60;37.50;;;;;;5092430;28;20127;-61
2023/03/22 00:16:05;;;;;;;9.02;6.00;;;22.60;37.40;;;;;;5092623;28;20086;-61
2023/03/22 00:18:32;;;;;;;8.63;6.55;;;22.60;37.50;;;;;;5092430;28;20056;-61
2023/03/22 00:21:00;;;;;;;9.60;6.47;;;22.60;37.50;;;;;;5092045;28;20135;-61
2023/03/22 00:23:28;;;;;;;8.65;6.65;;;22.60;37.40;;;;;;5092027;28;20051;-61
2023/03/22 00:25:56;;;;;;;9.68;6.78;;;22.60;37.40;;;;;;5092012;28;20048;-61
2023/03/22 00:28:23;;;;;;;7.50;5.93;;;22.60;37.40;;;;;;5089739;28;20044;-61
2023/03/22 00:30:54;;;;;;;8.30;6.22;;;22.60;37.40;;;;;;5075706;28;20049;-61
2023/03/22 00:33:21;;;;;;;;;;;22.60;37.40;;;;;;5075871;28;20080;-61
2023/03/22 00:35:50;;;;;;;8.60;5.88;;;22.60;37.40;;;;;;5076254;28;19934;-62
2023/03/22 00:38:17;;;;;;;7.75;5.70;;;22.60;37.50;;;;;;5075458;28;20497;-60
2023/03/22 00:40:47;;;;;;;8.57;6.43;;;22.50;37.40;;;;;;5076435;28;20049;-61
2023/03/22 00:43:15;;;;;;;7.13;5.50;;;22.60;37.50;;;;;;5076245;28;20154;-60
2023/03/22 00:45:42;;;;;;;8.13;6.13;;;22.50;37.40;;;;;;5075673;28;20467;-61
2023/03/22 00:48:10;;;;;;;8.73;6.03;;;22.50;37.40;;;;;;5075674;28;20048;-61
2023/03/22 00:50:38;;;;;;;9.32;6.38;;;22.50;37.40;;;;;;5076144;28;20483;-60
2023/03/22 00:53:06;;;;;;;7.82;5.72;;;22.50;37.40;;;;;;5083359;28;20094;-61
2023/03/22 00:55:33;;;;;;;9.57;5.90;;;22.50;37.50;;;;;;5095312;28;20058;-60
2023/03/22 00:58:00;;;;;;;7.30;5.57;;;22.50;37.40;;;;;;5096450;28;20048;-61
2023/03/22 01:00:28;;;;;;;6.90;5.03;;;22.50;37.40;;;;;;5095149;28;20127;-61
2023/03/22 01:02:58;;;;;;;7.38;5.35;;;22.50;37.50;;;;;;5095330;28;20083;-61
2023/03/22 01:05:27;;;;;;;;;;;22.50;37.50;;;;;;5097003;28;20071;-61
2023/03/22 01:07:54;;;;;;;7.95;5.70;;;22.50;37.50;;;;;;5095887;28;19920;-62
2023/03/22 01:10:22;;;;;;;7.00;5.43;;;22.50;37.40;;;;;;5094926;28;20138;-61
2023/03/22 01:12:50;;;;;;;6.13;5.40;;;22.50;37.40;;;;;;5096255;28;20484;-60
2023/03/22 01:15:17;;;;;;;7.72;5.70;;;22.50;37.40;;;;;;5095518;28;20139;-61
2023/03/22 01:17:44;;;;;;;7.85;5.65;;;22.50;37.40;;;;;;5094859;28;20062;-61
2023/03/22 01:20:12;;;;;;;7.97;5.57;;;22.50;37.50;;;;;;5095367;28;20048;-61
2023/03/22 01:22:39;;;;;;;7.25;5.32;;;22.50;37.40;;;;;;5095525;28;20052;-61
2023/03/22 01:25:07;;;;;;;6.78;5.47;;;22.40;37.40;;;;;;5094864;28;20083;-61
2023/03/22 01:27:34;;;;;;;7.55;5.32;;;22.40;37.40;;;;;;5096199;28;20488;-61
2023/03/22 01:30:02;;;;;;;6.45;4.97;;;22.40;37.40;;;;;;5095677;28;20048;-61
2023/03/22 01:32:30;;;;;;;7.85;5.82;;;22.40;37.40;;;;;;5083924;28;20110;-61
2023/03/22 01:34:57;;;;;;;5.93;5.20;;;22.40;37.40;;;;;;5074970;28;20134;-63
2023/03/22 01:37:26;;;;;;;7.20;5.25;;;22.40;37.40;;;;;;5074350;28;20052;-61
2023/03/22 01:39:54;;;;;;;8.95;6.00;;;22.40;37.40;;;;;;5073997;28;20055;-61
2023/03/22 01:42:23;;;;;;;7.60;5.45;;;22.40;37.50;;;;;;5074447;28;20473;-61
2023/03/22 01:45:25;;;;;;;7.38;5.80;;;22.40;37.50;;;;;;5075637;28;20059;-61
2023/03/22 01:48:00;;;;;;;6.53;4.82;;;22.50;37.50;;;;;;5074887;28;20088;-61
2023/03/22 01:50:28;;;;;;;7.15;5.45;;;22.40;37.50;;;;;;5075326;28;20106;-61
2023/03/22 01:52:58;;;;;;;6.47;4.75;;;22.40;37.50;;;;;;5074709;28;20099;-61
2023/03/22 01:55:26;;;;;;;6.00;5.05;;;22.40;37.50;;;;;;5074246;28;20392;-61
2023/03/22 01:57:54;;;;;;;6.07;4.50;;;22.40;37.50;;;;;;5074604;28;20087;-61
2023/03/22 02:00:21;;;;;;;6.65;4.82;;;22.40;37.50;;;;;;5073986;28;20049;-61
2023/03/22 02:02:51;;;;;;;7.25;5.15;;;22.40;37.50;;;;;;5074491;28;20131;-61
2023/03/22 02:05:21;;;;;;;6.10;5.35;;;22.40;37.50;;;;;;5073892;28;20131;-60
2023/03/22 02:07:49;;;;;;;7.18;5.22;;;22.40;37.50;;;;;;5076976;28;20556;-61
2023/03/22 02:10:23;;;;;;;6.75;5.25;;;22.40;37.50;;;;;;5088675;28;20040;-61
2023/03/22 02:13:26;;;;;;;5.75;5.05;;;22.40;37.50;;;;;;5094336;28;20043;-61
2023/03/22 02:16:22;;;;;;;6.75;5.00;;;22.40;37.40;;;;;;5092534;28;20052;-61
2023/03/22 02:19:01;;;;;;;7.47;4.80;;;22.40;37.50;;;;;;5094574;28;20098;-61
2023/03/22 02:22:08;;;;;;;6.82;4.88;;;22.40;37.40;;;;;;5093313;28;20097;-61
2023/03/22 02:25:16;;;;;;;6.55;5.07;;;22.40;37.40;;;;;;5094154;28;20090;-61
2023/03/22 02:28:23;;;;;;;6.03;4.80;;;22.40;37.40;;;;;;5080375;28;20076;-61
2023/03/22 02:31:30;;;;;;;5.85;4.60;;;22.40;37.40;;;;;;5073433;28;20135;-61
2023/03/22 02:34:34;;;;;;;6.05;4.68;;;22.40;37.40;;;;;;5073088;28;20046;-61
2023/03/22 02:37:41;;;;;;;4.85;4.22;;;22.50;37.40;;;;;;5074151;28;20461;-60
2023/03/22 02:40:30;;;;;;;5.47;4.63;;;22.50;37.40;;;;;;5074599;28;20054;-61
2023/03/22 02:43:22;;;;;;;6.47;4.72;;;22.40;37.40;;;;;;5072600;28;20504;-61
2023/03/22 02:46:11;;;;;;;5.28;4.13;;;22.40;37.40;;;;;;5073760;28;20146;-61
2023/03/22 02:49:03;;;;;;;7.35;5.03;;;22.40;37.40;;;;;;5073508;28;20048;-61
2023/03/22 02:51:42;;;;;;;6.68;4.75;;;22.50;37.40;;;;;;5072247;28;20048;-61
2023/03/22 02:54:20;;;;;;;7.10;4.78;;;22.40;37.40;;;;;;5073283;28;20067;-63
2023/03/22 02:56:53;;;;;;;6.22;4.35;;;22.40;37.40;;;;;;5072993;28;20574;-61
2023/03/22 02:59:22;;;;;;;6.53;4.88;;;22.40;37.40;;;;;;5072518;28;20052;-61
2023/03/22 03:01:56;;;;;;;4.43;3.95;;;22.40;37.40;;;;;;5072787;28;20044;-61
2023/03/22 03:04:34;;;;;;;6.47;3.92;;;22.40;37.40;;;;;;5072909;28;20052;-61
2023/03/22 03:07:06;;;;;;;6.05;4.25;;;22.40;37.40;;;;;;5073596;28;20068;-61
2023/03/22 03:09:34;;;;;;;4.93;4.18;;;22.40;37.40;;;;;;5073396;28;20060;-61
2023/03/22 03:12:01;;;;;;;5.82;4.53;;;22.40;37.40;;;;;;5073318;28;20496;-61
2023/03/22 03:14:31;;;;;;;5.50;4.30;;;22.40;37.40;;;;;;5073087;28;20049;-61
2023/03/22 03:17:24;;;;;;;5.28;4.28;;;22.40;37.40;;;;;;5072008;28;20080;-61
2023/03/22 03:20:28;;;;;;;7.43;4.13;;;22.40;37.40;;;;;;5072841;28;20074;-61
2023/03/22 03:23:23;;;;;;;5.63;4.25;;;22.40;37.40;;;;;;5071682;28;20044;-61
2023/03/22 03:26:09;;;;;;;3.95;3.58;;;22.40;37.40;;;;;;5072961;28;20044;-61
2023/03/22 03:29:16;;;;;;;5.30;4.30;;;22.30;37.30;;;;;;5070889;28;20059;-61
2023/03/22 03:31:59;;;;;;;4.78;4.10;;;22.40;37.40;;;;;;5072820;28;20044;-61
2023/03/22 03:35:00;;;;;;;4.75;3.60;;;22.40;37.40;;;;;;5072409;28;20058;-61
2023/03/22 03:37:36;;;;;;;4.85;4.25;;;22.30;37.40;;;;;;5072653;28;20075;-61
2023/03/22 03:40:10;;;;;;;5.20;4.05;;;22.30;37.40;;;;;;5072616;28;20516;-61
2023/03/22 03:42:42;;;;;;;5.07;3.95;;;22.40;37.40;;;;;;5074755;28;20046;-61
2023/03/22 03:45:09;;;;;;;6.03;4.00;;;22.40;37.40;;;;;;5085766;28;20052;-64
2023/03/22 03:47:38;;;;;;;5.70;4.30;;;22.30;37.40;;;;;;5092357;28;20048;-61
2023/03/22 03:50:06;;;;;;;5.13;4.03;;;22.30;37.40;;;;;;5092524;28;20044;-61
2023/03/22 03:52:33;;;;;;;5.65;4.20;;;22.30;37.40;;;;;;5092249;28;20051;-61
2023/03/22 03:55:00;;;;;;;4.18;3.50;;;22.30;37.40;;;;;;5090479;28;20087;-61
2023/03/22 03:57:27;;;;;;;4.78;4.20;;;22.30;37.40;;;;;;5092062;28;20048;-62
2023/03/22 03:59:55;;;;;;;4.40;3.45;;;22.30;37.40;;;;;;5091639;28;20105;-61
2023/03/22 04:02:22;;;;;;;4.45;3.60;;;22.30;37.40;;;;;;5091850;28;20123;-61
2023/03/22 04:04:49;;;;;;;4.57;3.70;;;22.30;37.40;;;;;;5092121;28;20054;-61
2023/03/22 04:07:16;;;;;;;4.95;3.85;;;22.30;37.40;;;;;;5092065;28;20051;-61
2023/03/22 04:09:44;;;;;;;4.65;3.92;;;22.30;37.40;;;;;;5090723;28;20051;-61
2023/03/22 04:12:11;;;;;;;5.15;3.60;;;22.30;37.40;;;;;;5092051;28;20086;-61
2023/03/22 04:14:38;;;;;;;4.25;3.25;;;22.30;37.40;;;;;;5092822;28;20055;-61
2023/03/22 04:17:05;;;;;;;4.07;3.45;;;22.30;37.40;;;;;;5092177;28;20472;-61
2023/03/22 04:19:32;;;;;;;4.60;3.65;;;22.30;37.40;;;;;;5092423;28;20079;-61
2023/03/22 04:22:00;;;;;;;4.55;3.72;;;22.30;37.40;;;;;;5092795;28;20044;-61
2023/03/22 04:24:27;;;;;;;4.38;3.53;;;22.30;37.30;;;;;;5090335;28;20057;-62
2023/03/22 04:26:54;;;;;;;4.00;3.60;;;22.30;37.30;;;;;;5091922;28;20450;-67
2023/03/22 04:29:21;;;;;;;4.30;3.15;;;22.30;37.30;;;;;;5091243;28;20044;-61
2023/03/22 04:31:49;;;;;;;4.75;3.78;;;22.30;37.30;;;;;;5092209;28;20067;-66
2023/03/22 04:34:16;;;;;;;3.80;3.40;;;22.30;37.30;;;;;;5091180;28;20502;-65
2023/03/22 04:36:44;;;;;;;4.18;3.45;;;22.30;37.30;;;;;;5091360;28;20160;-64
2023/03/22 04:39:11;;;;;;;4.00;3.40;;;22.40;37.40;;;;;;5077824;28;20055;-64
2023/03/22 04:41:38;;;;;;;4.78;3.65;;;22.40;37.30;;;;;;5078743;28;20056;-62
2023/03/22 04:44:07;;;;;;;4.43;3.35;;;22.30;37.30;;;;;;5085712;28;20098;-64
2023/03/22 04:46:36;;;;;;;3.83;3.28;;;22.40;37.40;;;;;;5091604;28;20056;-63
2023/03/22 04:49:04;;;;;;;4.78;3.55;;;22.40;37.30;;;;;;5085981;28;20052;-62
2023/03/22 04:51:31;;;;;;;3.75;3.30;;;22.40;37.30;;;;;;5086220;28;20052;-66
2023/03/22 04:53:59;;;;;;;4.53;3.30;;;22.30;37.30;;;;;;5087812;28;20048;-64
2023/03/22 04:56:26;;;;;;;4.13;3.28;;;22.30;37.30;;;;;;5090455;28;20090;-64
2023/03/22 04:58:53;;;;;;;3.83;3.42;;;22.40;37.30;;;;;;5091410;28;20052;-62
2023/03/22 05:01:21;;;;;;;3.92;3.38;;;22.30;37.30;;;;;;5088606;28;20051;-60
2023/03/22 05:03:48;;;;;;;5.32;3.63;;;22.30;37.30;;;;;;5083277;28;20048;-67
2023/03/22 05:06:15;;;;;;;3.60;3.15;;;22.30;37.30;;;;;;5090185;28;20044;-66
2023/03/22 05:08:42;;;;;;;4.60;3.17;;;22.30;37.30;;;;;;5091465;28;20052;-63
2023/03/22 05:11:15;;;;;;;4.40;3.40;;;22.30;37.30;;;;;;5075003;28;20071;-62
2023/03/22 05:13:42;;;;;;;4.53;3.38;;;22.30;37.30;;;;;;5079944;28;20441;-61
2023/03/22 05:16:10;;;;;;;3.95;3.28;;;22.30;37.30;;;;;;5076459;28;20079;-60
2023/03/22 05:18:41;;;;;;;3.47;2.97;;;22.30;37.30;;;;;;5092741;28;20046;-60
2023/03/22 05:21:14;;;;;;;4.85;3.47;;;22.30;37.30;;;;;;5089298;28;20040;-60
2023/03/22 05:23:42;;;;;;;4.50;3.30;;;22.30;37.30;;;;;;5095091;28;20040;-61
2023/03/22 05:26:14;;;;;;;3.65;3.13;;;22.30;37.30;;;;;;5090571;28;20071;-60
2023/03/22 05:28:43;;;;;;;6.18;3.95;;;22.30;37.30;;;;;;5093807;28;20047;-61
2023/03/22 05:31:13;;;;;;;3.88;2.90;;;22.30;37.30;;;;;;5091372;28;20444;-60
2023/03/22 05:33:40;;;;;;;;;;;22.30;37.30;;;;;;5087071;28;20048;-60
2023/03/22 05:36:10;;;;;;;4.40;3.67;;;22.30;37.30;;;;;;5092418;28;19920;-60
2023/03/22 05:38:37;;;;;;;4.30;3.20;;;22.30;37.20;;;;;;5092095;28;20588;-61
2023/03/22 05:41:05;;;;;;;4.72;3.67;;;22.30;37.10;;;;;;5075213;28;20044;-60
2023/03/22 05:43:32;;;;;;;5.30;3.20;;;22.30;37.10;;;;;;5075029;28;20411;-60
2023/03/22 05:45:59;;;;;;;4.03;3.40;;;22.30;37.00;;;;;;5077703;28;20052;-60
2023/03/22 05:48:27;;;;;;;4.13;3.67;;;22.30;37.00;;;;;;5095451;28;20094;-59
2023/03/22 05:50:54;;;;;;;5.30;3.40;;;22.30;37.10;;;;;;5094387;28;20060;-60
2023/03/22 05:53:21;;;;;;;4.50;3.95;;;22.30;37.10;;;;;;5094738;28;20044;-59
2023/03/22 05:55:48;;;;;;;4.45;3.60;;;22.30;37.10;;;;;;5095249;28;20130;-59
2023/03/22 05:58:17;;;;;;;5.22;3.67;;;22.30;37.10;;;;;;5092496;28;20040;-59
2023/03/22 06:00:48;;;;;;;6.97;3.70;;;22.30;37.10;;;;;;5090154;28;20052;-61
2023/03/22 06:03:17;;;;;;;6.22;3.40;;;22.30;37.10;;;;;;5085383;28;20721;-60
2023/03/22 06:05:45;;;;;;;4.78;3.60;;;22.30;37.10;;;;;;5092477;28;20059;-61
2023/03/22 06:08:12;;;;;;;3.97;3.58;;;22.30;37.00;;;;;;5086909;28;20075;-60
2023/03/22 06:10:39;;;;;;;4.78;3.50;;;22.40;37.00;;;;;;5092014;28;20404;-60
2023/03/22 06:13:07;;;;;;;4.65;3.17;;;22.40;36.90;;;;;;5091768;28;20059;-60
2023/03/22 06:15:34;;;;;;;4.05;3.47;;;22.40;36.90;;;;;;5083737;28;20052;-60
2023/03/22 06:18:01;;;;;;;4.75;3.67;;;22.40;36.90;;;;;;5084262;28;20052;-60
2023/03/22 06:20:28;;;;;;;4.03;3.05;;;22.40;36.80;;;;;;5084613;28;20040;-60
2023/03/22 06:22:55;;;;;;;4.40;3.17;;;22.50;36.80;;;;;;5085779;28;20095;-61
2023/03/22 06:25:22;;;;;;;3.92;3.28;;;22.50;36.80;;;;;;5082521;28;20179;-60
2023/03/22 06:27:50;;;;;;;5.60;3.35;;;22.50;36.70;;;;;;5080108;28;20075;-59
2023/03/22 06:30:17;;;;;;;4.90;3.78;;;22.50;36.60;;;;;;5080915;28;20051;-61
2023/03/22 06:32:45;;;;;;;4.43;3.33;;;22.60;36.60;;;;;;5086385;28;20064;-62
2023/03/22 06:35:12;;;;;;;8.82;3.95;;;22.60;36.60;;;;;;5086958;28;20044;-60
2023/03/22 06:37:39;;;;;;;4.50;3.20;;;22.60;36.70;;;;;;5083034;28;20090;-63
2023/03/22 06:40:08;;;;;;;6.35;3.70;;;22.70;36.80;;;;;;5083869;28;20102;-63
2023/03/22 06:42:36;;;;;;;4.07;3.10;;;22.70;36.80;;;;;;5078080;28;20101;-63
2023/03/22 06:45:03;;;;;;;8.63;4.18;;;22.80;36.80;;;;;;5076903;28;20058;-63
2023/03/22 06:47:31;;;;;;;4.90;3.25;;;22.80;36.70;;;;;;5082828;28;20040;-63
2023/03/22 06:49:58;;;;;;;5.38;3.85;;;22.80;36.60;;;;;;5073567;28;20052;-63
2023/03/22 06:52:25;;;;;;;7.30;3.67;;;22.80;36.50;;;;;;5075954;28;20047;-62
2023/03/22 06:54:52;;;;;;;3.58;3.17;;;22.90;36.40;;;;;;5074108;28;20105;-62
2023/03/22 06:57:22;;;;;;;7.85;4.28;;;22.90;36.30;;;;;;5081311;28;20491;-65
2023/03/22 06:59:50;;;;;;;6.82;3.97;;;23.00;36.30;;;;;;5077178;28;20056;-63
2023/03/22 07:02:17;;;;;;;6.22;3.97;;;23.00;36.30;;;;;;5078920;28;20040;-64
2023/03/22 07:04:45;;;;;;;6.22;3.95;;;23.00;36.30;;;;;;5077541;28;20093;-64
2023/03/22 07:07:13;;;;;;;4.65;3.35;;;23.00;36.20;;;;;;5076778;28;20149;-65
2023/03/22 07:09:40;;;;;;;5.90;3.45;;;23.10;36.30;;;;;;5085876;28;20133;-63
2023/03/22 07:12:08;;;;;;;5.65;3.75;;;23.10;36.20;;;;;;5078125;28;20139;-63
2023/03/22 07:14:36;;;;;;;6.05;3.88;;;23.20;36.20;;;;;;5078580;28;20139;-62
2023/03/22 07:17:03;;;;;;;5.80;3.95;;;23.20;36.20;;;;;;5080605;28;20062;-62
2023/03/22 07:19:31;;;;;;;6.70;4.18;;;23.30;36.20;;;;;;5081730;28;20138;-62
2023/03/22 07:21:58;;;;;;;7.07;4.18;;;23.30;36.20;;;;;;5078115;28;20055;-65
2023/03/22 07:24:25;;;;;;;6.65;3.92;;;23.30;36.10;;;;;;5081642;28;20117;-65
2023/03/22 07:26:53;;;;;;;10.15;3.92;;;23.40;36.20;;;;;;5079100;28;20134;-63
2023/03/22 07:29:20;;;;;;;5.90;4.05;;;23.40;36.10;;;;;;5078272;28;20052;-62
2023/03/22 07:31:47;;;;;;;6.88;4.03;;;23.40;36.00;;;;;;5080169;28;20052;-64
2023/03/22 07:34:15;;;;;;;7.55;4.45;;;23.50;36.10;;;;;;5078217;28;20472;-64
2023/03/22 07:36:42;;;;;;;6.53;4.30;;;23.50;36.10;;;;;;5080451;28;20177;-63
2023/03/22 07:39:09;;;;;;;6.30;4.25;;;23.50;36.20;;;;;;5081072;28;20059;-63
2023/03/22 07:41:36;;;;;;;7.25;3.83;;;23.50;36.50;;;;;;5078981;28;20131;-63
2023/03/22 07:44:05;;;;;;;7.40;5.00;;;23.60;36.60;;;;;;5081015;28;20070;-64
2023/03/22 07:46:43;;;;;;;6.68;4.60;;;23.60;36.50;;;;;;5076098;28;20060;-62
2023/03/22 07:49:11;;;;;;;12.57;4.22;;;23.60;36.40;;;;;;5076088;28;20143;-62
2023/03/22 07:51:39;;;;;;;6.82;4.38;;;23.70;36.30;;;;;;5080457;28;21603;-62
2023/03/22 07:54:06;;;;;;;13.60;4.90;;;23.70;36.30;;;;;;5078926;28;20047;-62
2023/03/22 07:56:34;;;;;;;6.90;4.63;;;23.70;36.20;;;;;;5076713;28;20048;-62
2023/03/22 07:59:01;;;;;;;7.85;4.90;;;23.80;36.10;;;;;;5077938;28;20455;-63
2023/03/22 08:01:29;;;;;;;7.15;5.00;;;23.80;36.10;;;;;;5077957;28;20048;-62
2023/03/22 08:03:56;;;;;;;6.72;4.47;;;23.80;36.10;;;;;;5079337;28;20066;-62
2023/03/22 08:06:23;;;;;;;6.80;4.78;;;23.90;36.10;;;;;;5073510;28;20075;-62
2023/03/22 08:08:50;;;;;;;8.27;5.32;;;23.90;36.20;;;;;;5076901;28;20059;-63
2023/03/22 08:11:17;;;;;;;9.25;5.00;;;24.00;36.10;;;;;;5080533;28;20060;-63
2023/03/22 08:13:44;;;;;;;6.05;4.65;;;24.00;36.00;;;;;;5080666;28;20044;-63
2023/03/22 08:16:12;;;;;;;9.95;4.72;;;24.10;36.40;;;;;;5081968;28;20468;-63
2023/03/22 08:18:39;;;;;;;6.45;4.38;;;24.10;36.10;;;;;;5079179;28;20051;-63
2023/03/22 08:21:10;;;;;;;6.70;4.72;;;24.20;36.20;;;;;;5081977;28;20052;-64
2023/03/22 08:23:37;;;;;;;7.22;5.10;;;24.20;36.70;;;;;;5081789;28;20040;-63
2023/03/22 08:26:09;;;;;;;8.68;4.95;;;24.30;36.20;;;;;;5080970;28;20056;-63
2023/03/22 08:28:36;;;;;;;10.27;5.32;;;24.30;36.10;;;;;;5079020;28;20361;-63
2023/03/22 08:31:15;;;;;;;6.57;4.93;;;24.40;36.00;;;;;;5077387;28;20040;-63
2023/03/22 08:33:43;;;;;;;9.73;4.78;;;24.40;35.80;;;;;;5077333;28;20051;-63
2023/03/22 08:36:15;;;;;;;7.93;5.20;;;24.50;35.70;;;;;;5077262;28;20102;-63
2023/03/22 08:38:44;;;;;;;6.57;4.45;;;24.50;35.70;;;;;;5077957;28;20048;-62
2023/03/22 08:41:12;;;;;;;8.93;5.20;;;24.60;35.30;;;;;;5077204;28;20076;-62
2023/03/22 08:43:39;;;;;;;11.93;5.32;;;24.60;35.10;;;;;;5082722;28;20139;-61
2023/03/22 08:46:07;;;;;;;6.60;4.88;;;24.70;35.00;;;;;;5079293;28;20171;-63
2023/03/22 08:48:36;;;;;;;8.00;5.28;;;24.70;34.90;;;;;;5075301;28;20549;-63
2023/03/22 08:51:05;;;;;;;6.80;4.90;;;24.70;34.90;;;;;;5078665;28;20436;-64
2023/03/22 08:53:33;;;;;;;7.17;4.63;;;24.80;34.90;;;;;;5085090;28;20051;-63
2023/03/22 08:56:01;;;;;;;9.55;5.15;;;24.80;34.90;;;;;;5081715;28;20293;-62
2023/03/22 08:58:28;;;;;;;9.82;5.15;;;24.90;34.90;;;;;;5082919;28;20052;-63
2023/03/22 09:00:55;;;;;;;10.40;4.85;;;24.90;34.90;;;;;;5076672;28;20895;-64
2023/03/22 09:03:23;;;;;;;10.02;5.07;;;24.90;34.90;;;;;;5081529;28;20052;-63
2023/03/22 09:05:51;;;;;;;8.40;4.88;;;24.90;34.90;;;;;;5083160;28;20504;-63
2023/03/22 09:08:18;;;;;;;9.18;5.20;;;25.00;34.90;;;;;;5081256;28;20044;-64
2023/03/22 09:10:50;;;;;;;5.95;4.10;;;25.00;34.90;;;;;;5081798;28;20068;-64
2023/03/22 09:13:18;;;;;;;9.02;5.28;;;25.00;34.90;;;;;;5085793;28;20079;-62
2023/03/22 09:15:46;;;;;;;6.20;4.20;;;25.00;34.80;;;;;;5090995;28;20048;-60
2023/03/22 09:18:15;;;;;;;6.55;4.50;;;25.10;34.80;;;;;;5081967;28;20047;-62
2023/03/22 09:20:44;;;;;;;6.75;4.30;;;25.10;34.70;;;;;;5080853;28;20050;-63
2023/03/22 09:23:14;;;;;;;5.35;3.95;;;25.10;34.60;;;;;;5089204;28;20051;-63
2023/03/22 09:25:45;;;;;;;7.40;4.72;;;25.10;34.60;;;;;;5090631;28;20090;-65
2023/03/22 09:28:13;;;;;;;7.47;4.05;;;25.10;34.60;;;;;;5084811;28;20075;-65
2023/03/22 09:30:42;;;;;;;9.07;4.72;;;25.20;34.50;;;;;;5082513;28;20044;-64
2023/03/22 09:33:09;;;;;;;5.82;3.78;;;25.20;34.40;;;;;;5083467;28;20151;-63
2023/03/22 09:35:41;;;;;;;6.57;4.45;;;25.20;34.40;;;;;;5083652;28;20131;-62
2023/03/22 09:38:09;;;;;;;6.60;4.35;;;25.20;34.30;;;;;;5085461;28;20109;-62
2023/03/22 09:40:45;;;;;;;7.00;4.35;;;25.30;34.30;;;;;;5082584;28;20044;-63
2023/03/22 09:43:15;;;;;;;7.43;4.53;;;25.30;34.30;;;;;;5083573;28;20139;-63
2023/03/22 09:45:45;;;;;;;7.35;4.28;;;25.30;34.20;;;;;;5082060;28;20127;-63
2023/03/22 09:48:21;;;;;;;5.03;3.80;;;25.30;34.40;;;;;;5080838;28;20056;-63
2023/03/22 09:50:53;;;;;;;5.95;3.95;;;25.40;34.10;;;;;;5082825;28;20557;-62
2023/03/22 09:53:23;;;;;;;6.00;3.95;;;25.40;34.60;;;;;;5084565;28;20056;-60
2023/03/22 09:56:10;;;;;;;5.45;4.20;;;25.40;34.10;;;;;;5083099;28;20123;-60
2023/03/22 09:58:55;;;;;;;8.60;4.45;;;25.40;34.50;;;;;;5081576;28;20056;-63
2023/03/22 10:02:00;;;;;;;6.78;3.83;;;25.40;33.80;;;;;;5081398;28;20055;-63
2023/03/22 10:04:59;;;;;;;6.75;4.45;;;25.50;33.80;;;;;;5082444;28;20139;-64
2023/03/22 10:08:05;;;;;;;7.03;4.18;;;25.50;33.90;;;;;;5084860;28;20054;-63
2023/03/22 10:10:35;;;;;;;6.57;3.90;;;25.50;33.80;;;;;;5082470;28;20135;-64
2023/03/22 10:13:28;;;;;;;6.75;4.05;;;25.60;33.80;;;;;;5083953;28;20704;-63
2023/03/22 10:16:00;;;;;;;7.72;4.35;;;25.60;33.80;;;;;;5080825;28;20051;-63
2023/03/22 10:18:44;;;;;;;10.73;4.45;;;25.60;33.70;;;;;;5084975;28;20048;-63
2023/03/22 10:21:14;;;;;;;7.28;4.45;;;25.70;33.70;;;;;;5081548;28;20052;-64
2023/03/22 10:23:55;;;;;;;6.10;3.90;;;25.70;33.60;;;;;;5088975;28;21525;-62
2023/03/22 10:26:38;;;;;;;7.22;4.10;;;25.70;33.50;;;;;;5086817;28;20476;-63
2023/03/22 10:29:20;;;;;;;8.70;3.75;;;25.70;34.00;;;;;;5081569;28;21086;-63
2023/03/22 10:31:48;;;;;;;7.75;4.05;;;25.70;33.30;;;;;;5084763;28;20519;-65
2023/03/22 10:34:32;;;;;;;8.73;4.00;;;25.80;33.30;;;;;;5087051;28;20576;-65
2023/03/22 10:37:04;;;;;;;6.70;3.78;;;25.80;33.20;;;;;;5081419;28;20131;-63
2023/03/22 10:39:40;;;;;;;5.93;3.28;;;25.90;33.20;;;;;;5079961;28;20058;-63
2023/03/22 10:42:14;;;;;;;5.75;4.03;;;25.90;33.10;;;;;;5079382;28;20048;-62
2023/03/22 10:44:52;;;;;;;6.88;3.97;;;25.90;33.10;;;;;;5081976;28;20054;-64
2023/03/22 10:47:30;;;;;;;6.50;3.75;;;26.00;33.10;;;;;;5084265;28;20075;-62
2023/03/22 10:50:03;;;;;;;5.47;3.33;;;26.00;33.10;;;;;;5079134;28;20047;-63
2023/03/22 10:52:58;;;;;;;5.28;3.55;;;26.00;33.00;;;;;;5078022;28;20075;-62
2023/03/22 10:55:25;;;;;;;8.02;3.85;;;26.10;33.10;;;;;;5080854;28;20076;-62
2023/03/22 10:58:11;;;;;;;5.47;3.47;;;26.10;33.00;;;;;;5081761;28;20040;-63
2023/03/22 11:00:44;;;;;;;6.53;2.95;;;26.10;33.00;;;;;;5082186;28;20490;-62
2023/03/22 11:03:30;;;;;;;6.75;3.22;;;26.10;32.90;;;;;;5083290;28;20052;-62
2023/03/22 11:06:09;;;;;;;5.63;3.28;;;26.10;32.90;;;;;;5084378;28;20462;-64
2023/03/22 11:08:51;;;;;;;6.70;3.60;;;26.10;32.80;;;;;;5079763;28;20451;-62
2023/03/22 11:11:26;;;;;;;5.43;2.70;;;26.10;32.70;;;;;;5080661;28;20049;-62
2023/03/22 11:13:59;;;;;;;4.40;2.60;;;26.20;32.80;;;;;;5080522;28;20054;-62
2023/03/22 11:16:29;;;;;;;6.18;2.75;;;26.20;32.80;;;;;;5087269;28;20051;-62
2023/03/22 11:19:00;;;;;;;6.50;2.97;;;26.20;32.80;;;;;;5089261;28;20044;-62
2023/03/22 11:21:31;;;;;;;6.57;3.58;;;26.20;32.70;;;;;;5084668;28;20094;-62
2023/03/22 11:24:04;;;;;;;4.20;2.83;;;26.20;32.70;;;;;;5081987;28;20395;-62
2023/03/22 11:26:35;;;;;;;4.05;2.70;;;26.20;32.70;;;;;;5077344;28;20560;-63
2023/03/22 11:29:16;;;;;;;3.50;2.65;;;26.20;32.60;;;;;;5084097;28;20599;-62
2023/03/22 11:31:57;;;;;;;5.88;2.40;;;26.20;32.70;;;;;;5081244;28;20052;-63
2023/03/22 11:34:28;;;;;;;6.57;3.30;;;26.20;32.60;;;;;;5083721;28;20056;-64
2023/03/22 11:36:59;;;;;;;3.63;2.42;;;26.20;32.50;;;;;;5079657;28;20046;-63
2023/03/22 11:39:28;;;;;;;4.10;2.55;;;26.20;32.30;;;;;;5083846;28;20048;-63
2023/03/22 11:42:02;;;;;;;3.78;2.20;;;26.20;32.50;;;;;;5079039;28;20060;-65
2023/03/22 11:44:36;;;;;;;5.40;3.17;;;26.30;32.30;;;;;;5084827;28;20101;-64
2023/03/22 11:47:07;;;;;;;3.75;2.25;;;26.30;32.40;;;;;;5086292;28;20084;-64
2023/03/22 11:49:50;;;;;;;4.95;2.38;;;26.30;32.10;;;;;;5074985;28;20123;-64
2023/03/22 11:52:23;;;;;;;4.72;2.50;;;26.30;32.10;;;;;;5082760;28;20040;-64
2023/03/22 11:54:53;;;;;;;5.60;2.40;;;26.30;32.20;;;;;;5083514;28;20044;-65
2023/03/22 11:57:28;;;;;;;2.90;2.08;;;26.30;32.20;;;;;;5082141;28;20055;-63
2023/03/22 12:00:10;;;;;;;2.90;1.83;;;26.30;32.10;;;;;;5076947;28;20223;-64
2023/03/22 12:02:47;;;;;;;2.15;1.73;;;26.30;32.00;;;;;;5078453;28;20044;-65
2023/03/22 12:05:21;;;;;;;2.95;1.92;;;26.30;31.90;;;;;;5078077;28;20056;-63
2023/03/22 12:07:57;;;;;;;3.95;1.70;;;26.30;32.30;;;;;;5070929;28;20058;-64
2023/03/22 12:10:30;;;;;;;10.73;2.35;;;26.30;32.60;;;;;;5076021;28;20117;-65
2023/03/22 12:13:06;;;;;;;3.05;2.10;;;26.30;32.60;;;;;;5079824;28;20310;-64
2023/03/22 12:15:41;;;;;;;3.60;1.92;;;26.40;33.40;;;;;;5081019;28;20058;-63
2023/03/22 12:18:18;;;;;;;4.07;1.55;;;26.40;33.10;;;;;;5081936;28;20055;-63
2023/03/22 12:20:55;;;;;;;2.60;1.80;;;26.40;33.30;;;;;;5077245;28;20048;-63
2023/03/22 12:23:36;;;;;;;6.47;1.90;;;26.40;33.40;;;;;;5079529;28;21244;-57
2023/03/22 12:26:16;;;;;;;6.63;2.15;;;26.50;33.70;;;;;;5078785;28;20484;-59
2023/03/22 12:29:00;;;;;;;2.42;1.73;;;26.50;33.50;;;;;;5083670;28;20044;-59
2023/03/22 12:31:37;;;;;;;8.40;1.90;;;26.50;33.20;;;;;;5080804;28;20058;-60
2023/03/22 12:34:12;;;;;;;5.10;1.98;;;26.50;33.20;;;;;;5086302;28;20488;-59
2023/03/22 12:36:45;;;;;;;4.65;1.95;;;26.50;33.10;;;;;;5082280;28;21167;-59
2023/03/22 12:39:29;;;;;;;7.25;2.08;;;26.50;33.00;;;;;;5082946;28;20075;-59
2023/03/22 12:42:02;;;;;;;2.50;1.70;;;26.50;32.80;;;;;;5085081;28;20084;-59
2023/03/22 12:44:40;;;;;;;3.45;1.73;;;26.50;32.60;;;;;;5084130;28;20056;-58
2023/03/22 12:47:35;;;;;;;2.90;1.52;;;26.50;32.60;;;;;;5074604;28;20052;-59
2023/03/22 12:50:19;;;;;;;4.82;2.03;;;26.50;32.50;;;;;;5083764;28;20449;-58
2023/03/22 12:52:52;;;;;;;2.22;1.60;;;26.50;32.70;;;;;;5076887;28;20048;-58
2023/03/22 12:55:27;;;;;;;2.17;1.67;;;26.50;32.80;;;;;;5078317;28;20051;-58
2023/03/22 12:57:55;;;;;;;2.58;1.60;;;26.50;32.80;;;;;;5081313;28;20040;-59
2023/03/22 13:00:43;;;;;;;5.18;1.80;;;26.60;32.80;;;;;;5076108;28;20135;-58
2023/03/22 13:03:27;;;;;;;2.88;1.50;;;26.60;32.70;;;;;;5078315;28;20146;-59
2023/03/22 13:06:02;;;;;;;4.28;1.65;;;26.60;32.80;;;;;;5083992;28;20528;-59
2023/03/22 13:09:11;;;;;;;10.10;1.85;;;26.60;32.80;;;;;;5084578;28;20542;-59
2023/03/22 13:11:39;;;;;;;3.53;1.42;;;26.60;32.60;;;;;;5083083;28;20139;-57
2023/03/22 13:14:10;;;;;;;3.45;1.83;;;26.50;32.80;;;;;;5083105;28;20130;-60
2023/03/22 13:16:50;;;;;;;3.65;1.60;;;26.50;32.60;;;;;;5083562;28;20123;-60